sensor_id;sensor_type;location;lat;lon;timestamp;pressure;altitude;pressure_sealevel;temperature;humidity
67987;BME280;54767;53.800;15.956;2022-12-20T00:01:26;100307.59;;;2.26;85.35
67987;BME280;54767;53.800;15.956;2022-12-20T00:03:55;100302.58;;;2.26;85.30
67987;BME280;54767;53.800;15.956;2022-12-20T00:06:22;100302.90;;;2.25;85.21
67987;BME280;54767;53.800;15.956;2022-12-20T00:08:55;100298.97;;;2.26;85.53
67987;BME280;54767;53.800;15.956;2022-12-20T00:11:23;100304.02;;;2.27;85.48
67987;BME280;54767;53.800;15.956;2022-12-20T00:13:50;100307.51;;;2.29;85.38
67987;BME280;54767;53.800;15.956;2022-12-20T00:16:20;100322.94;;;2.31;85.59
67987;BME280;54767;53.800;15.956;2022-12-20T00:18:51;100332.01;;;2.33;85.53
67987;BME280;54767;53.800;15.956;2022-12-20T00:21:18;100331.16;;;2.33;85.49
67987;BME280;54767;53.800;15.956;2022-12-20T00:23:45;100322.71;;;2.34;85.51
67987;BME280;54767;53.800;15.956;2022-12-20T00:26:14;100313.06;;;2.34;85.57
67987;BME280;54767;53.800;15.956;2022-12-20T00:28:42;100307.73;;;2.35;85.49
67987;BME280;54767;53.800;15.956;2022-12-20T00:31:11;100314.36;;;2.36;85.61
67987;BME280;54767;53.800;15.956;2022-12-20T00:33:39;100326.86;;;2.38;85.33
67987;BME280;54767;53.800;15.956;2022-12-20T00:36:08;100341.22;;;2.39;85.58
67987;BME280;54767;53.800;15.956;2022-12-20T00:38:35;100353.38;;;2.41;85.29
67987;BME280;54767;53.800;15.956;2022-12-20T00:41:10;100362.17;;;2.40;85.46
67987;BME280;54767;53.800;15.956;2022-12-20T00:43:38;100349.94;;;2.41;85.38
67987;BME280;54767;53.800;15.956;2022-12-20T00:46:07;100343.21;;;2.41;85.27
67987;BME280;54767;53.800;15.956;2022-12-20T00:48:35;100343.08;;;2.43;85.24
67987;BME280;54767;53.800;15.956;2022-12-20T00:51:13;100343.30;;;2.44;85.12
67987;BME280;54767;53.800;15.956;2022-12-20T00:53:41;100343.86;;;2.45;85.21
67987;BME280;54767;53.800;15.956;2022-12-20T00:56:09;100340.44;;;2.45;85.38
67987;BME280;54767;53.800;15.956;2022-12-20T00:58:38;100335.75;;;2.45;85.18
67987;BME280;54767;53.800;15.956;2022-12-20T01:01:15;100333.52;;;2.45;85.42
67987;BME280;54767;53.800;15.956;2022-12-20T01:03:43;100336.52;;;2.47;85.32
67987;BME280;54767;53.800;15.956;2022-12-20T01:06:10;100342.06;;;2.48;85.19
67987;BME280;54767;53.800;15.956;2022-12-20T01:08:37;100345.08;;;2.50;85.39
67987;BME280;54767;53.800;15.956;2022-12-20T01:11:12;100346.64;;;2.51;85.27
67987;BME280;54767;53.800;15.956;2022-12-20T01:13:41;100349.05;;;2.50;85.32
67987;BME280;54767;53.800;15.956;2022-12-20T01:18:47;100344.02;;;2.49;85.15
67987;BME280;54767;53.800;15.956;2022-12-20T01:21:16;100342.66;;;2.50;85.35
67987;BME280;54767;53.800;15.956;2022-12-20T01:23:43;100348.42;;;2.52;85.20
67987;BME280;54767;53.800;15.956;2022-12-20T01:26:12;100350.21;;;2.54;85.36
67987;BME280;54767;53.800;15.956;2022-12-20T01:28:41;100349.04;;;2.55;85.36
67987;BME280;54767;53.800;15.956;2022-12-20T01:31:11;100351.27;;;2.54;85.13
67987;BME280;54767;53.800;15.956;2022-12-20T01:33:39;100351.27;;;2.54;85.23
67987;BME280;54767;53.800;15.956;2022-12-20T01:36:09;100348.71;;;2.55;85.27
67987;BME280;54767;53.800;15.956;2022-12-20T01:38:37;100340.27;;;2.56;85.15
67987;BME280;54767;53.800;15.956;2022-12-20T01:41:04;100343.94;;;2.57;85.20
67987;BME280;54767;53.800;15.956;2022-12-20T01:43:51;100344.00;;;2.59;85.11
67987;BME280;54767;53.800;15.956;2022-12-20T01:46:20;100339.86;;;2.59;85.16
67987;BME280;54767;53.800;15.956;2022-12-20T01:48:56;100349.89;;;2.59;85.33
67987;BME280;54767;53.800;15.956;2022-12-20T01:51:26;100340.73;;;2.59;85.24
67987;BME280;54767;53.800;15.956;2022-12-20T01:54:30;100338.67;;;2.59;84.95
67987;BME280;54767;53.800;15.956;2022-12-20T01:56:53;100341.33;;;2.61;85.20
67987;BME280;54767;53.800;15.956;2022-12-20T01:59:21;100337.56;;;2.62;85.12
67987;BME280;54767;53.800;15.956;2022-12-20T02:01:49;100337.39;;;2.62;85.06
67987;BME280;54767;53.800;15.956;2022-12-20T02:04:16;100327.36;;;2.62;85.28
67987;BME280;54767;53.800;15.956;2022-12-20T02:06:43;100330.67;;;2.63;85.18
67987;BME280;54767;53.800;15.956;2022-12-20T02:09:10;100327.27;;;2.64;85.07
67987;BME280;54767;53.800;15.956;2022-12-20T02:12:07;100323.29;;;2.64;84.95
67987;BME280;54767;53.800;15.956;2022-12-20T02:20:52;100313.63;;;2.64;84.92
67987;BME280;54767;53.800;15.956;2022-12-20T02:31:49;100316.66;;;2.67;85.03
67987;BME280;54767;53.800;15.956;2022-12-20T02:34:19;100314.23;;;2.67;84.95
67987;BME280;54767;53.800;15.956;2022-12-20T02:36:50;100312.97;;;2.65;85.03
67987;BME280;54767;53.800;15.956;2022-12-20T02:39:18;100307.78;;;2.65;84.95
67987;BME280;54767;53.800;15.956;2022-12-20T02:41:51;100312.67;;;2.67;85.06
67987;BME280;54767;53.800;15.956;2022-12-20T02:44:23;100312.51;;;2.67;84.92
67987;BME280;54767;53.800;15.956;2022-12-20T02:47:14;100311.84;;;2.68;84.83
67987;BME280;54767;53.800;15.956;2022-12-20T02:49:45;100307.89;;;2.69;84.99
67987;BME280;54767;53.800;15.956;2022-12-20T02:52:13;100296.48;;;2.68;84.89
67987;BME280;54767;53.800;15.956;2022-12-20T02:54:40;100302.11;;;2.66;84.95
67987;BME280;54767;53.800;15.956;2022-12-20T02:57:47;100305.54;;;2.65;85.00
67987;BME280;54767;53.800;15.956;2022-12-20T03:00:24;100299.38;;;2.67;84.91
67987;BME280;54767;53.800;15.956;2022-12-20T03:02:51;100288.88;;;2.68;84.79
67987;BME280;54767;53.800;15.956;2022-12-20T03:05:45;100281.34;;;2.70;85.08
67987;BME280;54767;53.800;15.956;2022-12-20T03:08:13;100279.80;;;2.70;84.92
67987;BME280;54767;53.800;15.956;2022-12-20T03:10:40;100280.99;;;2.70;84.86
67987;BME280;54767;53.800;15.956;2022-12-20T03:13:07;100282.21;;;2.70;84.99
67987;BME280;54767;53.800;15.956;2022-12-20T03:15:35;100290.89;;;2.71;84.98
67987;BME280;54767;53.800;15.956;2022-12-20T03:18:02;100297.35;;;2.74;84.91
67987;BME280;54767;53.800;15.956;2022-12-20T03:20:29;100295.83;;;2.75;84.84
67987;BME280;54767;53.800;15.956;2022-12-20T03:22:56;100298.06;;;2.75;84.99
67987;BME280;54767;53.800;15.956;2022-12-20T03:25:22;100295.96;;;2.74;84.94
67987;BME280;54767;53.800;15.956;2022-12-20T03:27:49;100292.33;;;2.73;84.82
67987;BME280;54767;53.800;15.956;2022-12-20T03:30:16;100295.28;;;2.74;84.91
67987;BME280;54767;53.800;15.956;2022-12-20T03:32:43;100292.56;;;2.75;84.89
67987;BME280;54767;53.800;15.956;2022-12-20T03:35:10;100298.14;;;2.76;84.78
67987;BME280;54767;53.800;15.956;2022-12-20T03:37:37;100302.83;;;2.77;84.84
67987;BME280;54767;53.800;15.956;2022-12-20T03:40:05;100298.94;;;2.74;84.92
67987;BME280;54767;53.800;15.956;2022-12-20T03:42:32;100288.14;;;2.72;84.65
67987;BME280;54767;53.800;15.956;2022-12-20T03:44:59;100284.33;;;2.72;84.88
67987;BME280;54767;53.800;15.956;2022-12-20T03:47:26;100289.66;;;2.71;85.00
67987;BME280;54767;53.800;15.956;2022-12-20T03:49:53;100292.48;;;2.72;85.07
67987;BME280;54767;53.800;15.956;2022-12-20T03:52:19;100286.48;;;2.75;84.95
67987;BME280;54767;53.800;15.956;2022-12-20T03:54:46;100283.90;;;2.75;85.02
67987;BME280;54767;53.800;15.956;2022-12-20T03:57:13;100284.56;;;2.74;85.01
67987;BME280;54767;53.800;15.956;2022-12-20T03:59:41;100292.34;;;2.74;85.05
67987;BME280;54767;53.800;15.956;2022-12-20T04:02:09;100295.95;;;2.73;84.89
67987;BME280;54767;53.800;15.956;2022-12-20T04:04:36;100295.48;;;2.75;84.99
67987;BME280;54767;53.800;15.956;2022-12-20T04:07:03;100283.09;;;2.76;85.04
67987;BME280;54767;53.800;15.956;2022-12-20T04:09:29;100287.14;;;2.78;85.14
67987;BME280;54767;53.800;15.956;2022-12-20T04:11:56;100284.73;;;2.78;85.06
67987;BME280;54767;53.800;15.956;2022-12-20T04:14:23;100283.48;;;2.78;85.11
67987;BME280;54767;53.800;15.956;2022-12-20T04:16:50;100279.89;;;2.78;84.90
67987;BME280;54767;53.800;15.956;2022-12-20T04:19:17;100275.05;;;2.79;85.24
67987;BME280;54767;53.800;15.956;2022-12-20T04:21:44;100279.23;;;2.79;84.93
67987;BME280;54767;53.800;15.956;2022-12-20T04:24:10;100275.83;;;2.81;84.72
67987;BME280;54767;53.800;15.956;2022-12-20T04:26:37;100277.02;;;2.80;84.73
67987;BME280;54767;53.800;15.956;2022-12-20T04:29:04;100281.45;;;2.79;84.82
67987;BME280;54767;53.800;15.956;2022-12-20T04:31:31;100283.46;;;2.77;84.82
67987;BME280;54767;53.800;15.956;2022-12-20T04:33:58;100282.95;;;2.77;84.84
67987;BME280;54767;53.800;15.956;2022-12-20T04:36:25;100283.52;;;2.78;84.84
67987;BME280;54767;53.800;15.956;2022-12-20T04:38:51;100278.36;;;2.79;84.68
67987;BME280;54767;53.800;15.956;2022-12-20T04:41:19;100279.07;;;2.80;84.72
67987;BME280;54767;53.800;15.956;2022-12-20T04:43:55;100272.16;;;2.80;84.80
67987;BME280;54767;53.800;15.956;2022-12-20T04:46:23;100273.16;;;2.79;84.91
67987;BME280;54767;53.800;15.956;2022-12-20T04:48:51;100265.70;;;2.78;84.86
67987;BME280;54767;53.800;15.956;2022-12-20T04:51:25;100264.84;;;2.78;84.90
67987;BME280;54767;53.800;15.956;2022-12-20T04:53:53;100260.70;;;2.79;84.86
67987;BME280;54767;53.800;15.956;2022-12-20T04:56:25;100260.40;;;2.80;84.73
67987;BME280;54767;53.800;15.956;2022-12-20T04:58:55;100264.77;;;2.81;84.59
67987;BME280;54767;53.800;15.956;2022-12-20T05:01:23;100267.51;;;2.80;84.79
67987;BME280;54767;53.800;15.956;2022-12-20T05:03:50;100272.12;;;2.79;84.89
67987;BME280;54767;53.800;15.956;2022-12-20T05:06:18;100273.64;;;2.77;85.00
67987;BME280;54767;53.800;15.956;2022-12-20T05:08:46;100271.39;;;2.78;84.97
67987;BME280;54767;53.800;15.956;2022-12-20T05:11:13;100275.23;;;2.79;84.83
67987;BME280;54767;53.800;15.956;2022-12-20T05:13:40;100270.41;;;2.79;84.85
67987;BME280;54767;53.800;15.956;2022-12-20T05:16:08;100269.05;;;2.80;84.83
67987;BME280;54767;53.800;15.956;2022-12-20T05:18:35;100269.27;;;2.81;84.93
67987;BME280;54767;53.800;15.956;2022-12-20T05:21:03;100269.08;;;2.81;84.97
67987;BME280;54767;53.800;15.956;2022-12-20T05:23:48;100264.77;;;2.81;84.75
67987;BME280;54767;53.800;15.956;2022-12-20T05:26:35;100261.35;;;2.82;84.82
67987;BME280;54767;53.800;15.956;2022-12-20T05:29:04;100267.06;;;2.83;84.67
67987;BME280;54767;53.800;15.956;2022-12-20T05:31:31;100274.39;;;2.84;84.85
67987;BME280;54767;53.800;15.956;2022-12-20T05:33:59;100276.84;;;2.85;84.74
67987;BME280;54767;53.800;15.956;2022-12-20T05:36:26;100271.81;;;2.85;84.93
67987;BME280;54767;53.800;15.956;2022-12-20T05:38:53;100265.55;;;2.84;84.81
67987;BME280;54767;53.800;15.956;2022-12-20T05:41:29;100267.34;;;2.86;84.76
67987;BME280;54767;53.800;15.956;2022-12-20T05:43:57;100275.70;;;2.87;84.79
67987;BME280;54767;53.800;15.956;2022-12-20T05:46:24;100271.45;;;2.90;84.57
67987;BME280;54767;53.800;15.956;2022-12-20T05:48:51;100275.29;;;2.90;84.56
67987;BME280;54767;53.800;15.956;2022-12-20T05:51:18;100281.36;;;2.91;84.46
67987;BME280;54767;53.800;15.956;2022-12-20T05:53:45;100269.73;;;2.90;84.73
67987;BME280;54767;53.800;15.956;2022-12-20T05:56:12;100273.70;;;2.89;84.74
67987;BME280;54767;53.800;15.956;2022-12-20T05:58:41;100278.41;;;2.90;84.61
67987;BME280;54767;53.800;15.956;2022-12-20T06:01:09;100280.84;;;2.91;84.75
67987;BME280;54767;53.800;15.956;2022-12-20T06:03:39;100285.05;;;2.93;84.47
67987;BME280;54767;53.800;15.956;2022-12-20T06:06:06;100288.53;;;2.94;84.46
67987;BME280;54767;53.800;15.956;2022-12-20T06:08:41;100287.80;;;2.92;84.40
67987;BME280;54767;53.800;15.956;2022-12-20T06:11:08;100286.89;;;2.91;84.58
67987;BME280;54767;53.800;15.956;2022-12-20T06:13:35;100283.08;;;2.91;84.50
67987;BME280;54767;53.800;15.956;2022-12-20T06:16:02;100281.33;;;2.90;84.56
67987;BME280;54767;53.800;15.956;2022-12-20T06:18:29;100287.20;;;2.90;84.48
67987;BME280;54767;53.800;15.956;2022-12-20T06:20:56;100295.67;;;2.90;84.40
67987;BME280;54767;53.800;15.956;2022-12-20T06:23:23;100292.92;;;2.91;84.58
67987;BME280;54767;53.800;15.956;2022-12-20T06:25:51;100286.86;;;2.90;84.50
67987;BME280;54767;53.800;15.956;2022-12-20T06:28:18;100285.10;;;2.89;84.51
67987;BME280;54767;53.800;15.956;2022-12-20T06:30:57;100282.63;;;2.87;84.36
67987;BME280;54767;53.800;15.956;2022-12-20T06:33:24;100279.48;;;2.87;84.29
67987;BME280;54767;53.800;15.956;2022-12-20T06:35:51;100288.31;;;2.87;84.29
67987;BME280;54767;53.800;15.956;2022-12-20T06:38:18;100289.36;;;2.87;84.39
67987;BME280;54767;53.800;15.956;2022-12-20T06:40:45;100294.90;;;2.88;84.28
67987;BME280;54767;53.800;15.956;2022-12-20T06:43:12;100294.31;;;2.86;84.32
67987;BME280;54767;53.800;15.956;2022-12-20T06:45:39;100299.47;;;2.85;84.47
67987;BME280;54767;53.800;15.956;2022-12-20T06:48:09;100295.14;;;2.85;84.54
67987;BME280;54767;53.800;15.956;2022-12-20T06:50:39;100288.79;;;2.86;84.48
67987;BME280;54767;53.800;15.956;2022-12-20T06:53:06;100291.75;;;2.87;84.56
67987;BME280;54767;53.800;15.956;2022-12-20T06:55:33;100287.27;;;2.87;84.63
67987;BME280;54767;53.800;15.956;2022-12-20T06:58:00;100281.71;;;2.86;84.42
67987;BME280;54767;53.800;15.956;2022-12-20T07:00:28;100285.80;;;2.84;84.49
67987;BME280;54767;53.800;15.956;2022-12-20T07:02:55;100285.12;;;2.84;84.52
67987;BME280;54767;53.800;15.956;2022-12-20T07:05:22;100298.65;;;2.86;84.46
67987;BME280;54767;53.800;15.956;2022-12-20T07:07:49;100303.58;;;2.88;84.47
67987;BME280;54767;53.800;15.956;2022-12-20T07:10:16;100306.02;;;2.89;84.37
67987;BME280;54767;53.800;15.956;2022-12-20T07:12:43;100305.02;;;2.90;84.57
67987;BME280;54767;53.800;15.956;2022-12-20T07:15:15;100308.14;;;2.91;84.43
67987;BME280;54767;53.800;15.956;2022-12-20T07:17:42;100304.52;;;2.91;84.53
67987;BME280;54767;53.800;15.956;2022-12-20T07:20:09;100303.46;;;2.91;84.44
67987;BME280;54767;53.800;15.956;2022-12-20T07:22:40;100292.59;;;2.91;84.32
67987;BME280;54767;53.800;15.956;2022-12-20T07:25:08;100297.85;;;2.92;84.44
67987;BME280;54767;53.800;15.956;2022-12-20T07:27:35;100302.36;;;2.93;84.52
67987;BME280;54767;53.800;15.956;2022-12-20T07:30:03;100303.52;;;2.92;84.35
67987;BME280;54767;53.800;15.956;2022-12-20T07:32:30;100304.50;;;2.91;84.42
67987;BME280;54767;53.800;15.956;2022-12-20T07:34:58;100299.65;;;2.90;84.38
67987;BME280;54767;53.800;15.956;2022-12-20T07:37:27;100300.31;;;2.89;84.44
67987;BME280;54767;53.800;15.956;2022-12-20T07:39:54;100303.96;;;2.90;84.40
67987;BME280;54767;53.800;15.956;2022-12-20T07:42:21;100302.42;;;2.90;84.16
67987;BME280;54767;53.800;15.956;2022-12-20T07:44:48;100294.83;;;2.91;84.44
67987;BME280;54767;53.800;15.956;2022-12-20T07:47:15;100294.16;;;2.91;84.30
67987;BME280;54767;53.800;15.956;2022-12-20T07:49:42;100310.21;;;2.91;84.49
67987;BME280;54767;53.800;15.956;2022-12-20T07:52:09;100311.98;;;2.92;84.34
67987;BME280;54767;53.800;15.956;2022-12-20T07:54:52;100308.41;;;2.94;84.38
67987;BME280;54767;53.800;15.956;2022-12-20T07:57:44;100307.59;;;2.95;84.43
67987;BME280;54767;53.800;15.956;2022-12-20T08:00:10;100312.67;;;2.98;84.64
67987;BME280;54767;53.800;15.956;2022-12-20T08:02:45;100316.50;;;2.98;84.38
67987;BME280;54767;53.800;15.956;2022-12-20T08:05:14;100306.44;;;2.97;84.28
67987;BME280;54767;53.800;15.956;2022-12-20T08:07:45;100306.40;;;2.96;84.64
67987;BME280;54767;53.800;15.956;2022-12-20T08:10:13;100302.23;;;2.95;84.34
67987;BME280;54767;53.800;15.956;2022-12-20T08:12:42;100305.89;;;2.96;84.35
67987;BME280;54767;53.800;15.956;2022-12-20T08:15:10;100305.40;;;2.97;84.28
67987;BME280;54767;53.800;15.956;2022-12-20T08:17:37;100307.55;;;2.99;84.29
67987;BME280;54767;53.800;15.956;2022-12-20T08:20:05;100309.40;;;2.98;84.35
67987;BME280;54767;53.800;15.956;2022-12-20T08:22:32;100303.55;;;2.99;84.44
67987;BME280;54767;53.800;15.956;2022-12-20T08:25:00;100300.71;;;3.01;84.32
67987;BME280;54767;53.800;15.956;2022-12-20T08:27:27;100295.40;;;3.03;84.22
67987;BME280;54767;53.800;15.956;2022-12-20T08:29:54;100296.11;;;3.04;84.28
67987;BME280;54767;53.800;15.956;2022-12-20T08:32:21;100289.80;;;3.06;84.21
67987;BME280;54767;53.800;15.956;2022-12-20T08:34:47;100297.71;;;3.05;84.28
67987;BME280;54767;53.800;15.956;2022-12-20T08:37:16;100307.20;;;3.04;84.10
67987;BME280;54767;53.800;15.956;2022-12-20T08:39:43;100301.48;;;3.04;84.34
67987;BME280;54767;53.800;15.956;2022-12-20T08:42:10;100299.61;;;3.05;84.08
67987;BME280;54767;53.800;15.956;2022-12-20T08:44:37;100294.96;;;3.06;84.40
67987;BME280;54767;53.800;15.956;2022-12-20T08:47:04;100296.80;;;3.08;83.96
67987;BME280;54767;53.800;15.956;2022-12-20T08:49:31;100302.98;;;3.07;84.26
67987;BME280;54767;53.800;15.956;2022-12-20T08:51:58;100299.72;;;3.07;84.08
67987;BME280;54767;53.800;15.956;2022-12-20T08:54:25;100299.46;;;3.06;84.12
67987;BME280;54767;53.800;15.956;2022-12-20T08:56:52;100297.56;;;3.05;84.18
67987;BME280;54767;53.800;15.956;2022-12-20T08:59:19;100297.98;;;3.07;84.19
67987;BME280;54767;53.800;15.956;2022-12-20T09:01:46;100297.38;;;3.10;84.12
67987;BME280;54767;53.800;15.956;2022-12-20T09:04:13;100293.59;;;3.10;84.00
67987;BME280;54767;53.800;15.956;2022-12-20T09:06:41;100288.77;;;3.12;84.10
67987;BME280;54767;53.800;15.956;2022-12-20T09:09:07;100298.29;;;3.12;84.24
67987;BME280;54767;53.800;15.956;2022-12-20T09:11:34;100302.42;;;3.11;84.44
67987;BME280;54767;53.800;15.956;2022-12-20T09:14:01;100290.67;;;3.11;84.12
67987;BME280;54767;53.800;15.956;2022-12-20T09:16:30;100292.98;;;3.13;84.01
67987;BME280;54767;53.800;15.956;2022-12-20T09:19:00;100294.39;;;3.15;84.11
67987;BME280;54767;53.800;15.956;2022-12-20T09:21:33;100292.03;;;3.16;84.11
67987;BME280;54767;53.800;15.956;2022-12-20T09:23:59;100288.90;;;3.15;84.27
67987;BME280;54767;53.800;15.956;2022-12-20T09:26:26;100286.87;;;3.17;84.22
67987;BME280;54767;53.800;15.956;2022-12-20T09:28:53;100279.11;;;3.18;84.30
67987;BME280;54767;53.800;15.956;2022-12-20T09:31:23;100285.05;;;3.19;84.22
67987;BME280;54767;53.800;15.956;2022-12-20T09:33:55;100295.00;;;3.22;84.10
67987;BME280;54767;53.800;15.956;2022-12-20T09:36:25;100292.30;;;3.24;84.35
67987;BME280;54767;53.800;15.956;2022-12-20T09:38:53;100284.50;;;3.24;84.23
67987;BME280;54767;53.800;15.956;2022-12-20T09:43:51;100296.46;;;3.25;84.17
67987;BME280;54767;53.800;15.956;2022-12-20T09:46:18;100289.52;;;3.25;84.04
67987;BME280;54767;53.800;15.956;2022-12-20T09:48:45;100282.45;;;3.25;84.19
67987;BME280;54767;53.800;15.956;2022-12-20T09:54:24;100287.36;;;3.27;84.21
67987;BME280;54767;53.800;15.956;2022-12-20T10:00:20;100275.41;;;3.27;84.57
67987;BME280;54767;53.800;15.956;2022-12-20T10:02:47;100268.21;;;3.28;84.35
67987;BME280;54767;53.800;15.956;2022-12-20T10:05:47;100266.38;;;3.30;84.55
67987;BME280;54767;53.800;15.956;2022-12-20T10:11:13;100265.95;;;3.33;84.32
67987;BME280;54767;53.800;15.956;2022-12-20T10:16:36;100262.70;;;3.34;84.57
67987;BME280;54767;53.800;15.956;2022-12-20T10:19:12;100264.83;;;3.36;84.63
67987;BME280;54767;53.800;15.956;2022-12-20T10:24:26;100255.88;;;3.43;84.33
67987;BME280;54767;53.800;15.956;2022-12-20T10:26:58;100256.11;;;3.45;84.30
67987;BME280;54767;53.800;15.956;2022-12-20T10:29:30;100253.70;;;3.45;84.35
67987;BME280;54767;53.800;15.956;2022-12-20T10:31:59;100248.51;;;3.45;84.30
67987;BME280;54767;53.800;15.956;2022-12-20T10:34:27;100248.02;;;3.47;84.33
67987;BME280;54767;53.800;15.956;2022-12-20T10:37:13;100247.04;;;3.48;84.17
67987;BME280;54767;53.800;15.956;2022-12-20T10:39:46;100243.67;;;3.51;84.59
67987;BME280;54767;53.800;15.956;2022-12-20T10:42:40;100240.09;;;3.53;84.21
67987;BME280;54767;53.800;15.956;2022-12-20T10:47:44;100224.20;;;3.54;84.28
67987;BME280;54767;53.800;15.956;2022-12-20T10:50:21;100218.34;;;3.55;84.27
67987;BME280;54767;53.800;15.956;2022-12-20T10:55:40;100220.65;;;3.57;84.28
67987;BME280;54767;53.800;15.956;2022-12-20T11:00:44;100219.33;;;3.59;84.39
67987;BME280;54767;53.800;15.956;2022-12-20T11:03:16;100217.25;;;3.59;84.57
67987;BME280;54767;53.800;15.956;2022-12-20T11:06:02;100212.48;;;3.61;84.47
67987;BME280;54767;53.800;15.956;2022-12-20T11:08:31;100212.95;;;3.65;84.47
67987;BME280;54767;53.800;15.956;2022-12-20T11:11:20;100209.92;;;3.69;84.39
67987;BME280;54767;53.800;15.956;2022-12-20T11:13:49;100207.12;;;3.73;84.16
67987;BME280;54767;53.800;15.956;2022-12-20T11:16:37;100204.77;;;3.76;84.25
67987;BME280;54767;53.800;15.956;2022-12-20T11:19:24;100214.99;;;3.76;84.10
67987;BME280;54767;53.800;15.956;2022-12-20T11:30:24;100190.92;;;3.82;84.24
67987;BME280;54767;53.800;15.956;2022-12-20T11:47:09;100177.20;;;3.87;84.36
67987;BME280;54767;53.800;15.956;2022-12-20T11:52:38;100171.20;;;3.89;84.40
67987;BME280;54767;53.800;15.956;2022-12-20T11:58:05;100158.75;;;3.89;84.48
67987;BME280;54767;53.800;15.956;2022-12-20T12:00:53;100164.00;;;3.91;84.46
67987;BME280;54767;53.800;15.956;2022-12-20T12:03:37;100157.82;;;3.93;84.50
67987;BME280;54767;53.800;15.956;2022-12-20T12:06:27;100154.05;;;3.95;84.39
67987;BME280;54767;53.800;15.956;2022-12-20T12:11:44;100139.70;;;3.95;84.86
67987;BME280;54767;53.800;15.956;2022-12-20T12:14:54;100134.34;;;3.96;84.61
67987;BME280;54767;53.800;15.956;2022-12-20T12:26:04;100131.85;;;4.00;84.71
67987;BME280;54767;53.800;15.956;2022-12-20T12:28:33;100125.59;;;3.99;84.96
67987;BME280;54767;53.800;15.956;2022-12-20T12:31:05;100131.16;;;3.99;84.86
67987;BME280;54767;53.800;15.956;2022-12-20T12:33:38;100134.30;;;4.01;84.90
67987;BME280;54767;53.800;15.956;2022-12-20T12:36:26;100129.37;;;4.04;85.07
67987;BME280;54767;53.800;15.956;2022-12-20T12:39:12;100123.73;;;4.07;84.98
67987;BME280;54767;53.800;15.956;2022-12-20T12:44:31;100135.13;;;4.13;85.20
67987;BME280;54767;53.800;15.956;2022-12-20T12:47:22;100129.50;;;4.16;85.18
67987;BME280;54767;53.800;15.956;2022-12-20T12:49:51;100126.28;;;4.18;85.06
67987;BME280;54767;53.800;15.956;2022-12-20T12:52:40;100120.08;;;4.20;84.87
67987;BME280;54767;53.800;15.956;2022-12-20T12:55:37;100117.83;;;4.20;84.97
67987;BME280;54767;53.800;15.956;2022-12-20T13:03:43;100110.96;;;4.15;84.87
67987;BME280;54767;53.800;15.956;2022-12-20T13:11:34;100106.47;;;4.16;85.15
67987;BME280;54767;53.800;15.956;2022-12-20T13:19:50;100082.97;;;4.18;85.38
67987;BME280;54767;53.800;15.956;2022-12-20T13:22:22;100086.94;;;4.17;85.51
67987;BME280;54767;53.800;15.956;2022-12-20T13:24:58;100083.52;;;4.19;85.35
67987;BME280;54767;53.800;15.956;2022-12-20T13:37:56;100111.08;;;4.26;85.25
67987;BME280;54767;53.800;15.956;2022-12-20T13:40:44;100101.91;;;4.27;85.55
67987;BME280;54767;53.800;15.956;2022-12-20T13:45:50;100101.27;;;4.29;85.64
67987;BME280;54767;53.800;15.956;2022-12-20T13:48:24;100095.21;;;4.29;85.77
67987;BME280;54767;53.800;15.956;2022-12-20T13:50:54;100094.04;;;4.31;85.47
67987;BME280;54767;53.800;15.956;2022-12-20T13:53:23;100100.17;;;4.34;85.50
67987;BME280;54767;53.800;15.956;2022-12-20T13:55:53;100106.90;;;4.33;85.70
67987;BME280;54767;53.800;15.956;2022-12-20T13:58:24;100105.16;;;4.33;85.62
67987;BME280;54767;53.800;15.956;2022-12-20T14:00:52;100106.92;;;4.34;85.61
67987;BME280;54767;53.800;15.956;2022-12-20T14:03:28;100105.58;;;4.36;85.86
67987;BME280;54767;53.800;15.956;2022-12-20T14:05:58;100109.62;;;4.38;85.59
67987;BME280;54767;53.800;15.956;2022-12-20T14:08:33;100108.64;;;4.40;85.60
67987;BME280;54767;53.800;15.956;2022-12-20T14:11:15;100098.23;;;4.40;85.62
67987;BME280;54767;53.800;15.956;2022-12-20T14:14:01;100084.18;;;4.39;85.56
67987;BME280;54767;53.800;15.956;2022-12-20T14:16:30;100076.75;;;4.39;85.28
67987;BME280;54767;53.800;15.956;2022-12-20T14:19:05;100072.09;;;4.40;85.75
67987;BME280;54767;53.800;15.956;2022-12-20T14:21:35;100076.27;;;4.41;85.72
67987;BME280;54767;53.800;15.956;2022-12-20T14:24:03;100076.30;;;4.43;85.75
67987;BME280;54767;53.800;15.956;2022-12-20T14:26:39;100074.08;;;4.43;85.55
67987;BME280;54767;53.800;15.956;2022-12-20T14:29:11;100071.64;;;4.43;85.51
67987;BME280;54767;53.800;15.956;2022-12-20T14:31:43;100076.81;;;4.43;85.72
67987;BME280;54767;53.800;15.956;2022-12-20T14:36:39;100063.02;;;4.45;85.78
67987;BME280;54767;53.800;15.956;2022-12-20T14:39:26;100062.71;;;4.47;85.64
67987;BME280;54767;53.800;15.956;2022-12-20T14:44:30;100082.00;;;4.49;85.54
67987;BME280;54767;53.800;15.956;2022-12-20T14:46:59;100076.60;;;4.48;85.83
67987;BME280;54767;53.800;15.956;2022-12-20T14:49:29;100073.30;;;4.48;85.66
67987;BME280;54767;53.800;15.956;2022-12-20T15:13:26;100053.21;;;4.56;85.91
67987;BME280;54767;53.800;15.956;2022-12-20T15:15:54;100060.86;;;4.57;85.60
67987;BME280;54767;53.800;15.956;2022-12-20T15:18:21;100060.55;;;4.58;85.84
67987;BME280;54767;53.800;15.956;2022-12-20T15:21:00;100048.80;;;4.60;85.61
67987;BME280;54767;53.800;15.956;2022-12-20T15:23:27;100047.77;;;4.60;85.90
67987;BME280;54767;53.800;15.956;2022-12-20T15:25:55;100049.29;;;4.58;85.68
67987;BME280;54767;53.800;15.956;2022-12-20T15:28:24;100050.14;;;4.58;85.87
67987;BME280;54767;53.800;15.956;2022-12-20T15:30:52;100049.64;;;4.59;85.41